logo tempoitalia

Diretta Meteo Saratoga, Stati Uniti (USA)lunedì 31 agosto ore 00:35

Mappa
Sereno 12 °C Sereno 24 Ore: T.min 11 T.max 20
Ponente Sud Km/h 11.1 Punto di rugiada: 7 °C Umidità: 71% Visibilità: 10 Km
Il sole sorge alle: 06:32 Il sole tramonta alle: 19:42
31 Agosto 2026 00:35 tempo osservato: Sereno Sereno 12 71 1024 vento: Nord S 11.1
31 Agosto 2026 00:15 tempo osservato: Sereno Sereno 13 66 1024 vento: Nord S/SO 20.3
30 Agosto 2026 23:55 tempo osservato: Sereno Sereno 14 62 1024 vento: Nord SO 20.3
30 Agosto 2026 23:35 tempo osservato: Sereno Sereno 15 54 1024 vento: Nord S/SO 25.9
30 Agosto 2026 23:15 tempo osservato: Sereno Sereno 15 58 1024 vento: Nord S/SO 22.2
30 Agosto 2026 22:55 tempo osservato: Sereno Sereno 14 62 1024 vento: Nord S 22.2
30 Agosto 2026 22:35 tempo osservato: Sereno Sereno 15 58 1024 vento: Nord S/SO 13
30 Agosto 2026 22:15 tempo osservato: Sereno Sereno 15 58 1024 vento: Nord S/SO 14.8
30 Agosto 2026 21:55 tempo osservato: Sereno Sereno 15 58 1024 vento: Nord S/SO 11.1
30 Agosto 2026 21:35 tempo osservato: Nuvoloso Nuvoloso 14 67 1024 vento: Nord S 16.7
30 Agosto 2026 21:15 tempo osservato: Coperto Coperto 14 67 1024 vento: Nord S 11.1
30 Agosto 2026 20:55 tempo osservato: Coperto Coperto 13 71 1023 vento: Nord N 5.5
30 Agosto 2026 20:35 tempo osservato: Molto Nuvoloso Molto Nuvoloso 14 67 1023 vento: Nord E/SE 11.1
30 Agosto 2026 20:15 tempo osservato: Sereno Sereno 15 62 1023 vento: Nord S/SE 13
30 Agosto 2026 19:55 tempo osservato: Sereno Sereno 15 62 1023 vento: Nord S 14.8
30 Agosto 2026 19:35 tempo osservato: Sereno Sereno 16 58 1023 vento: Nord S 16.7
30 Agosto 2026 19:15 tempo osservato: Nuvoloso Nuvoloso 16 58 1023 vento: Nord S 11.1
30 Agosto 2026 18:55 tempo osservato: Molto Nuvoloso Molto Nuvoloso 17 55 1023 vento: Nord S/SE 11.1
30 Agosto 2026 18:35 tempo osservato: Sereno Sereno 18 48 1023 vento: Nord S/SO 16.7
30 Agosto 2026 18:15 tempo osservato: Sereno Sereno 18 51 1023 vento: Nord S/SO 13
30 Agosto 2026 17:55 tempo osservato: Sereno Sereno 18 48 1023 vento: Nord S/SO 18.5
30 Agosto 2026 17:35 tempo osservato: Sereno Sereno 19 48 1023 vento: Nord SO 18.5
30 Agosto 2026 17:15 tempo osservato: Nuvoloso Nuvoloso 19 48 1023 vento: Nord S/SO 14.8
30 Agosto 2026 16:55 tempo osservato: Coperto Coperto 20 45 1023 vento: Nord S 20.3
30 Agosto 2026 16:35 tempo osservato: Coperto Coperto 20 49 1023 vento: Nord S 22.2
30 Agosto 2026 16:15 tempo osservato: Molto Nuvoloso Molto Nuvoloso 18 59 1023 vento: Nord S/SE 22.2
30 Agosto 2026 15:55 tempo osservato: Nuvoloso Nuvoloso 17 63 1024 vento: Nord SE 20.3
30 Agosto 2026 15:35 tempo osservato: Sereno Sereno 17 63 1024 vento: Nord SE 24
30 Agosto 2026 15:15 tempo osservato: Nuvoloso Nuvoloso 15 72 1024 vento: Nord S/SE 22.2
30 Agosto 2026 14:55 tempo osservato: Coperto Coperto 12 87 1024 vento: Nord S 25.9
30 Agosto 2026 14:35 tempo osservato: Pioggia Pioggia 11 93 1023 vento: Nord S 35.2
30 Agosto 2026 14:15 tempo osservato: Pioggia Pioggia 11 81 1025 vento: Nord S 27.8
30 Agosto 2026 13:55 tempo osservato: Pioggia Pioggia 11 81 1025 vento: Nord S/SO 51.8
30 Agosto 2026 13:35 tempo osservato: Pioggia Pioggia 12 76 1025 vento: Nord SO 42.6
30 Agosto 2026 13:15 tempo osservato: Pioggia Pioggia 12 81 1025 vento: Nord SO 25.9
30 Agosto 2026 12:55 tempo osservato: Pioviggine Pioviggine 12 81 1025 vento: Nord SO 24
30 Agosto 2026 12:35 tempo osservato: Pioviggine Pioviggine 12 87 1025 vento: Nord SO 33.3
30 Agosto 2026 12:15 tempo osservato: Sereno Sereno 13 81 1025 vento: Nord SO 27.8
30 Agosto 2026 11:55 tempo osservato: Pioggia Pioggia 13 81 1025 vento: Nord SO 33.3
30 Agosto 2026 11:35 tempo osservato: Sereno Sereno 16 55 1025 vento: Nord O/SO 37
30 Agosto 2026 11:15 tempo osservato: Sereno Sereno 17 51 1023 vento: Nord SO 38.8
30 Agosto 2026 10:55 tempo osservato: Sereno Sereno 16 55 1024 vento: Nord O 14.8
30 Agosto 2026 10:35 tempo osservato: Sereno Sereno 16 55 1024 vento: Nord O/SO 14.8
30 Agosto 2026 10:15 tempo osservato: Temporale nelle vicinanze Temporale nelle vicinanze 16 51 1023 vento: Nord S/SO 22.2
30 Agosto 2026 09:55 tempo osservato: Temporale nelle vicinanze Temporale nelle vicinanze 16 51 1023 vento: Nord S/SE 25.9
30 Agosto 2026 09:35 tempo osservato: Sereno Sereno 15 58 1023 vento: Nord SE 22.2
30 Agosto 2026 09:15 tempo osservato: Sereno Sereno 14 62 1023 vento: Nord E/SE 18.5
30 Agosto 2026 08:55 tempo osservato: Sereno Sereno 15 58 1023 vento: Nord S 11.1
30 Agosto 2026 08:35 tempo osservato: Sereno Sereno 13 66 1023 vento: Nord S/SO 24
30 Agosto 2026 08:15 tempo osservato: Coperto Coperto 13 66 1023 vento: Nord S 27.8
30 Agosto 2026 07:55 tempo osservato: Pioggia Pioggia 14 62 1022 vento: Nord S/SO 44.4
30 Agosto 2026 07:35 tempo osservato: Coperto Coperto 14 62 1023 vento: Nord SO 24
30 Agosto 2026 07:15 tempo osservato: Coperto Coperto 15 58 1022 vento: Nord S 24
30 Agosto 2026 06:55 tempo osservato: Coperto Coperto 15 54 1022 vento: Nord S/SO 31.5
30 Agosto 2026 06:35 tempo osservato: Coperto Coperto 13 66 1022 vento: Nord S 22.2
30 Agosto 2026 06:15 tempo osservato: Coperto Coperto 14 62 1021 vento: Nord S 24
30 Agosto 2026 05:55 tempo osservato: Coperto Coperto 13 66 1022 vento: Nord S 16.7
30 Agosto 2026 05:35 tempo osservato: Molto Nuvoloso Molto Nuvoloso 13 71 1022 vento: Nord S/SE 16.7
30 Agosto 2026 05:15 tempo osservato: Coperto Coperto 14 62 1022 vento: Nord S/SE 20.3
30 Agosto 2026 04:55 tempo osservato: Coperto Coperto 14 62 1022 vento: Nord SE 25.9
30 Agosto 2026 04:35 tempo osservato: Coperto Coperto 14 62 1023 vento: Nord SE 20.3
30 Agosto 2026 04:15 tempo osservato: Sereno Sereno 14 62 1023 vento: Nord S/SE 18.5
30 Agosto 2026 03:55 tempo osservato: Sereno Sereno 14 67 1022 vento: Nord S/SE 25.9
30 Agosto 2026 03:35 tempo osservato: Sereno Sereno 14 67 1023 vento: Nord S/SO 31.5
30 Agosto 2026 03:15 tempo osservato: Sereno Sereno 15 62 1023 vento: Nord S/SO 31.5
30 Agosto 2026 02:55 tempo osservato: Sereno Sereno 15 62 1023 vento: Nord S 27.8
30 Agosto 2026 02:35 tempo osservato: Sereno Sereno 14 67 1023 vento: Nord S 13
30 Agosto 2026 02:15 tempo osservato: Sereno Sereno 15 58 1022 vento: Nord E/SE 14.8
30 Agosto 2026 01:55 tempo osservato: Sereno Sereno 15 58 1022 vento: Nord S/SE 16.7
30 Agosto 2026 01:35 tempo osservato: Sereno Sereno 15 58 1022 vento: Nord S/SE 18.5
30 Agosto 2026 01:15 tempo osservato: Sereno Sereno 15 58 1021 vento: Nord S/SE 20.3
30 Agosto 2026 00:55 tempo osservato: Sereno Sereno 16 55 1021 vento: Nord SE 29.6
30 Agosto 2026 00:35 tempo osservato: Sereno Sereno 15 62 1021 vento: Nord S/SE 27.8